Time;durP1;ratioP1;P1;durP2;ratioP2;P2;SDS_P1;SDS_P2;PMS_P1;PMS_P2;Temp;Humidity;BMP_temperature;BMP_pressure;BME280_temperature;BME280_humidity;BME280_pressure;Samples;Min_cycle;Max_cycle;Signal;HPM_P1;HPM_P2
2021/08/09 00:00:00;;;;;;;3.57;2.57;;;15.30;1.00;;;;;;5101638;27;20454;-70
2021/08/09 00:02:28;;;;;;;4.07;2.87;;;15.30;1.00;;;;;;5103951;27;20447;-70
2021/08/09 00:04:55;;;;;;;4.00;2.80;;;15.30;1.00;;;;;;5080241;27;20451;-70
2021/08/09 00:07:21;;;;;;;3.60;3.27;;;15.30;1.00;;;;;;5099638;27;20418;-69
2021/08/09 00:09:48;;;;;;;3.70;3.07;;;15.20;1.00;;;;;;5105106;27;20457;-70
2021/08/09 00:12:15;;;;;;;3.37;2.30;;;15.20;1.00;;;;;;5103300;27;20472;-69
2021/08/09 00:14:42;;;;;;;3.10;2.60;;;15.10;1.00;;;;;;5106130;27;20439;-69
2021/08/09 00:17:08;;;;;;;4.10;2.83;;;15.20;1.00;;;;;;5103403;27;20457;-70
2021/08/09 00:19:36;;;;;;;7.13;3.10;;;15.20;1.00;;;;;;5099752;27;20467;-68
2021/08/09 00:22:03;;;;;;;4.37;2.97;;;15.20;1.00;;;;;;5103614;27;20983;-69
2021/08/09 00:24:30;;;;;;;4.67;2.73;;;15.20;1.00;;;;;;5101921;27;20525;-69
2021/08/09 00:26:57;;;;;;;3.03;2.70;;;15.10;1.00;;;;;;5100182;27;20479;-71
2021/08/09 00:29:24;;;;;;;4.20;2.60;;;15.10;1.00;;;;;;5102942;27;21095;-69
2021/08/09 00:31:50;;;;;;;2.80;2.40;;;15.10;1.00;;;;;;5099352;27;20547;-71
2021/08/09 00:34:19;;;;;;;2.63;2.33;;;15.20;1.00;;;;;;5100362;27;20441;-71
2021/08/09 00:36:47;;;;;;;3.70;2.80;;;15.10;1.00;;;;;;5102594;27;20448;-70
2021/08/09 00:39:14;;;;;;;2.80;2.50;;;15.10;1.00;;;;;;5084026;27;20454;-69
2021/08/09 00:41:40;;;;;;;3.20;2.63;;;15.10;1.00;;;;;;5103601;27;21668;-71
2021/08/09 00:44:07;;;;;;;4.70;2.70;;;15.10;1.00;;;;;;5100574;27;20536;-71
2021/08/09 00:46:34;;;;;;;2.97;2.67;;;15.10;1.00;;;;;;5103138;27;20448;-70
2021/08/09 00:49:01;;;;;;;4.83;2.70;;;15.10;1.00;;;;;;5101000;27;20956;-69
2021/08/09 00:51:27;;;;;;;3.80;2.70;;;15.10;1.00;;;;;;5104104;27;20449;-70
2021/08/09 00:53:55;;;;;;;3.30;2.57;;;15.20;1.00;;;;;;5102319;27;20425;-70
2021/08/09 00:56:22;;;;;;;2.77;2.40;;;15.20;1.00;;;;;;5103131;27;20449;-71
2021/08/09 00:58:49;;;;;;;2.77;2.47;;;15.10;1.00;;;;;;5103730;27;20457;-69
2021/08/09 01:01:16;;;;;;;4.33;2.93;;;15.20;1.00;;;;;;5104343;27;20445;-71
2021/08/09 01:03:42;;;;;;;4.90;2.77;;;15.20;1.00;;;;;;5102604;27;20465;-71
2021/08/09 01:06:09;;;;;;;3.40;3.00;;;15.20;1.00;;;;;;5101742;27;20443;-71
2021/08/09 01:08:45;;;;;;;3.23;2.57;;;15.10;1.00;;;;;;5102532;27;20473;-69
2021/08/09 01:11:23;;;;;;;3.90;2.63;;;15.10;1.00;;;;;;5104339;27;20434;-71
2021/08/09 01:13:54;;;;;;;3.40;2.67;;;15.10;1.00;;;;;;5097047;27;20449;-70
2021/08/09 01:16:26;;;;;;;3.67;2.50;;;15.20;1.00;;;;;;5107922;27;20525;-70
2021/08/09 01:18:58;;;;;;;5.73;5.33;;;15.10;1.00;;;;;;5105610;27;20548;-70
2021/08/09 01:21:26;;;;;;;4.13;2.47;;;15.10;1.00;;;;;;5107389;27;20461;-69
2021/08/09 01:23:59;;;;;;;2.87;2.00;;;15.00;1.00;;;;;;5107338;27;20419;-71
2021/08/09 01:26:37;;;;;;;3.10;2.53;;;15.00;1.00;;;;;;5111996;27;20449;-71
2021/08/09 01:29:09;;;;;;;4.23;2.80;;;15.00;1.00;;;;;;5106690;27;20450;-70
2021/08/09 01:31:41;;;;;;;2.97;2.40;;;15.00;1.00;;;;;;5113258;27;20438;-70
2021/08/09 01:34:09;;;;;;;3.40;2.80;;;15.00;1.00;;;;;;5107549;27;20520;-68
2021/08/09 01:36:37;;;;;;;4.20;2.97;;;14.90;1.00;;;;;;5099907;27;20670;-70
2021/08/09 01:39:05;;;;;;;3.37;2.90;;;15.00;1.00;;;;;;5099943;27;20549;-69
2021/08/09 01:41:33;;;;;;;3.80;2.70;;;14.90;1.00;;;;;;5099510;27;21348;-70
2021/08/09 01:43:59;;;;;;;3.40;2.43;;;15.00;1.00;;;;;;5104242;27;20649;-70
2021/08/09 01:46:29;;;;;;;3.23;2.30;;;14.90;1.00;;;;;;5098680;27;20450;-70
2021/08/09 01:48:57;;;;;;;3.03;2.00;;;14.90;1.00;;;;;;5107963;27;20480;-70
2021/08/09 01:51:24;;;;;;;3.57;2.13;;;14.90;1.00;;;;;;5099001;27;20437;-71
2021/08/09 01:53:53;;;;;;;3.60;2.50;;;14.80;1.00;;;;;;5100174;27;21194;-70
2021/08/09 01:56:20;;;;;;;3.13;2.37;;;14.80;1.00;;;;;;5097454;27;20497;-69
2021/08/09 01:58:47;;;;;;;5.00;2.60;;;14.90;1.00;;;;;;5098255;27;20465;-70
2021/08/09 02:01:14;;;;;;;3.50;3.20;;;14.80;1.00;;;;;;5089468;27;20426;-70
2021/08/09 02:03:42;;;;;;;4.10;2.20;;;14.80;1.00;;;;;;5104402;27;20483;-68
2021/08/09 02:06:09;;;;;;;2.57;2.17;;;14.80;1.00;;;;;;5106482;27;21090;-70
2021/08/09 02:08:36;;;;;;;2.63;2.30;;;14.80;1.00;;;;;;5101653;27;20469;-71
2021/08/09 02:11:11;;;;;;;3.30;2.50;;;14.80;1.00;;;;;;5098760;27;20582;-70
2021/08/09 02:13:43;;;;;;;3.93;2.37;;;14.80;1.00;;;;;;5103126;27;20452;-69
2021/08/09 02:16:13;;;;;;;3.60;2.57;;;14.80;1.00;;;;;;5099024;27;21699;-70
2021/08/09 02:18:46;;;;;;;4.07;3.20;;;14.70;1.00;;;;;;5109228;27;20560;-70
2021/08/09 02:21:15;;;;;;;3.60;2.30;;;14.60;1.00;;;;;;5109449;27;20433;-69
2021/08/09 02:23:46;;;;;;;3.17;2.57;;;14.60;1.00;;;;;;5109997;27;20434;-70
2021/08/09 02:26:16;;;;;;;3.30;2.60;;;14.50;1.00;;;;;;5108938;27;20457;-70
2021/08/09 02:28:47;;;;;;;2.63;2.43;;;14.50;1.00;;;;;;5112164;27;20470;-69
2021/08/09 02:31:14;;;;;;;3.00;2.60;;;14.50;1.00;;;;;;5112877;27;20429;-73
2021/08/09 02:33:43;;;;;;;4.13;2.67;;;14.40;1.00;;;;;;5114861;27;20443;-69
2021/08/09 02:36:11;;;;;;;2.80;2.33;;;14.30;1.00;;;;;;5113595;27;21054;-70
2021/08/09 02:38:38;;;;;;;5.17;2.80;;;14.30;1.00;;;;;;5111663;27;21022;-69
2021/08/09 02:41:06;;;;;;;4.00;2.43;;;14.20;1.00;;;;;;5110729;27;20437;-69
2021/08/09 02:43:33;;;;;;;2.83;2.53;;;14.20;1.00;;;;;;5112688;27;20436;-71
2021/08/09 02:46:02;;;;;;;4.03;2.17;;;14.10;1.00;;;;;;5109300;27;20952;-71
2021/08/09 02:48:30;;;;;;;3.20;2.80;;;14.10;1.00;;;;;;5115453;27;21288;-71
2021/08/09 02:50:59;;;;;;;3.30;2.67;;;14.00;1.00;;;;;;5112371;27;21311;-71
2021/08/09 02:53:26;;;;;;;4.07;2.10;;;14.00;1.00;;;;;;5115166;27;20513;-70
2021/08/09 02:55:58;;;;;;;2.50;2.10;;;14.00;1.00;;;;;;5114970;27;20448;-70
2021/08/09 02:58:25;;;;;;;2.77;2.20;;;13.90;1.00;;;;;;5111896;27;20453;-69
2021/08/09 03:00:54;;;;;;;3.90;2.17;;;13.90;1.00;;;;;;5107783;27;20652;-69
2021/08/09 03:03:22;;;;;;;2.67;2.30;;;13.90;1.00;;;;;;5107808;27;20453;-71
2021/08/09 03:05:53;;;;;;;4.97;2.37;;;13.90;1.00;;;;;;5111783;27;20458;-70
2021/08/09 03:08:21;;;;;;;4.63;2.53;;;13.80;1.00;;;;;;5113465;27;20999;-70
2021/08/09 03:10:48;;;;;;;4.30;2.80;;;13.80;1.00;;;;;;5110983;27;20441;-70
2021/08/09 03:13:15;;;;;;;2.93;2.63;;;13.80;1.00;;;;;;5109854;27;20433;-69
2021/08/09 03:15:42;;;;;;;2.87;2.33;;;13.80;1.00;;;;;;5113435;27;20488;-70
2021/08/09 03:18:10;;;;;;;5.30;2.40;;;13.80;1.00;;;;;;5107931;27;20472;-69
2021/08/09 03:20:36;;;;;;;3.60;2.30;;;13.80;1.00;;;;;;5110372;27;20978;-70
2021/08/09 03:23:03;;;;;;;3.00;2.20;;;13.80;1.00;;;;;;5112769;27;20440;-70
2021/08/09 03:25:31;;;;;;;3.40;2.47;;;13.70;1.00;;;;;;5110762;27;20449;-70
2021/08/09 03:27:58;;;;;;;4.33;2.60;;;13.70;1.00;;;;;;5107770;27;20517;-70
2021/08/09 03:30:26;;;;;;;3.60;2.60;;;13.70;1.00;;;;;;5113905;27;20448;-70
2021/08/09 03:32:53;;;;;;;5.90;3.20;;;13.70;1.00;;;;;;5111806;27;20453;-70
2021/08/09 03:35:20;;;;;;;4.20;2.97;;;13.70;1.00;;;;;;5107784;27;20440;-70
2021/08/09 03:37:47;;;;;;;4.30;2.70;;;13.60;1.00;;;;;;5111712;27;20569;-69
2021/08/09 03:40:16;;;;;;;3.10;2.67;;;13.60;1.00;;;;;;5112290;27;20964;-70
2021/08/09 03:42:44;;;;;;;3.03;2.67;;;13.60;1.00;;;;;;5111568;27;20565;-70
2021/08/09 03:45:11;;;;;;;3.63;2.53;;;13.60;1.00;;;;;;5109924;27;20469;-69
2021/08/09 03:47:38;;;;;;;3.83;2.80;;;13.60;1.00;;;;;;5110984;27;20480;-71
2021/08/09 03:50:05;;;;;;;4.17;2.70;;;13.60;1.00;;;;;;5108666;27;20429;-70
2021/08/09 03:52:32;;;;;;;4.50;2.97;;;13.60;1.00;;;;;;5106782;27;20449;-70
2021/08/09 03:54:59;;;;;;;6.00;3.13;;;13.60;1.00;;;;;;5110161;27;20448;-70
2021/08/09 03:57:26;;;;;;;5.43;2.80;;;13.60;1.00;;;;;;5113005;27;20445;-70
2021/08/09 03:59:54;;;;;;;4.23;2.67;;;13.60;1.00;;;;;;5111046;27;20505;-71
2021/08/09 04:02:28;;;;;;;4.17;3.23;;;13.60;1.00;;;;;;5110532;27;20545;-71
2021/08/09 04:04:57;;;;;;;4.60;3.20;;;13.60;1.00;;;;;;5095050;27;20452;-69
2021/08/09 04:07:24;;;;;;;4.70;3.63;;;13.60;1.00;;;;;;5110276;27;20478;-71
2021/08/09 04:09:51;;;;;;;3.40;3.10;;;13.60;1.00;;;;;;5107254;27;20453;-71
2021/08/09 04:12:17;;;;;;;7.00;6.30;;;13.60;1.00;;;;;;5112492;27;20615;-71
2021/08/09 04:14:44;;;;;;;4.50;3.47;;;13.60;1.00;;;;;;5110738;27;20450;-70
2021/08/09 04:17:12;;;;;;;6.47;3.87;;;13.60;1.00;;;;;;5108763;27;20841;-71
2021/08/09 04:19:39;;;;;;;5.13;3.73;;;13.70;1.00;;;;;;5110741;27;20438;-70
2021/08/09 04:22:06;;;;;;;5.17;3.50;;;13.70;1.00;;;;;;5104722;27;20460;-73
2021/08/09 04:24:33;;;;;;;4.80;3.27;;;13.70;1.00;;;;;;5105798;27;20553;-69
2021/08/09 04:26:59;;;;;;;4.13;3.53;;;13.70;1.00;;;;;;5103861;27;20533;-71
2021/08/09 04:29:27;;;;;;;5.77;4.93;;;13.70;1.00;;;;;;5111081;27;20461;-75
2021/08/09 04:31:54;;;;;;;4.90;3.53;;;13.80;1.00;;;;;;5105588;27;20963;-74
2021/08/09 04:34:22;;;;;;;3.80;3.40;;;13.80;1.00;;;;;;5107303;27;20457;-74
2021/08/09 04:36:48;;;;;;;3.33;3.03;;;13.80;1.00;;;;;;5113200;27;21124;-79
2021/08/09 04:39:15;;;;;;;3.97;3.57;;;13.80;1.00;;;;;;5110608;27;20446;-73
2021/08/09 04:41:42;;;;;;;5.33;3.93;;;13.70;1.00;;;;;;5108690;27;21122;-74
2021/08/09 04:44:12;;;;;;;6.40;3.80;;;13.60;1.00;;;;;;5092287;27;21040;-74
2021/08/09 04:46:39;;;;;;;5.20;3.97;;;13.70;1.00;;;;;;5109222;27;20453;-73
2021/08/09 04:49:06;;;;;;;3.23;2.83;;;13.70;1.00;;;;;;5108379;27;20453;-73
2021/08/09 04:51:34;;;;;;;4.33;3.30;;;13.70;1.00;;;;;;5114890;27;20451;-73
2021/08/09 04:54:00;;;;;;;4.63;3.60;;;13.70;1.00;;;;;;5120667;27;20435;-72
2021/08/09 04:56:27;;;;;;;4.60;3.60;;;13.70;1.00;;;;;;5118161;27;20450;-73
2021/08/09 04:58:53;;;;;;;6.60;4.20;;;13.70;1.00;;;;;;5117924;27;20503;-72
2021/08/09 05:01:20;;;;;;;4.00;3.70;;;13.80;1.00;;;;;;5127532;27;20427;-85
2021/08/09 05:03:47;;;;;;;5.43;4.07;;;13.80;1.00;;;;;;5133464;27;20478;-72
2021/08/09 05:06:14;;;;;;;6.20;4.10;;;13.90;1.00;;;;;;5125341;27;20910;-72
2021/08/09 05:08:42;;;;;;;4.03;3.60;;;13.90;1.00;;;;;;5122177;27;20461;-71
2021/08/09 05:11:09;;;;;;;4.90;4.40;;;14.00;1.00;;;;;;5115192;27;20445;-71
2021/08/09 05:13:36;;;;;;;5.93;3.47;;;14.10;1.00;;;;;;5122477;27;20503;-72
2021/08/09 05:16:03;;;;;;;4.20;3.50;;;14.10;1.00;;;;;;5128772;27;21382;-72
2021/08/09 05:18:30;;;;;;;4.53;3.40;;;14.20;1.00;;;;;;5131047;27;20445;-72
2021/08/09 05:20:57;;;;;;;4.27;3.63;;;14.20;1.00;;;;;;5132501;27;21466;-72
2021/08/09 05:23:24;;;;;;;7.07;4.37;;;14.30;1.00;;;;;;5131381;27;20420;-71
2021/08/09 05:25:52;;;;;;;3.90;3.10;;;14.40;1.00;;;;;;5137123;27;21410;-72
2021/08/09 05:28:18;;;;;;;6.83;3.40;;;14.40;1.00;;;;;;5138282;27;21049;-72
2021/08/09 05:30:47;;;;;;;9.70;4.07;;;14.40;1.00;;;;;;5136254;27;20470;-73
2021/08/09 05:33:14;;;;;;;5.23;4.40;;;14.50;1.00;;;;;;5134532;27;20585;-75
2021/08/09 05:35:41;;;;;;;6.40;3.70;;;14.60;1.00;;;;;;5143328;27;21674;-78
2021/08/09 05:38:09;;;;;;;5.13;3.30;;;14.70;1.00;;;;;;5146315;27;20440;-76
2021/08/09 05:40:36;;;;;;;6.27;4.17;;;14.90;1.00;;;;;;5149963;27;20424;-77
2021/08/09 05:43:04;;;;;;;5.33;3.37;;;15.00;1.00;;;;;;5146399;27;20485;-76
2021/08/09 05:45:31;;;;;;;4.70;3.90;;;15.10;1.00;;;;;;5143920;27;20416;-75
2021/08/09 05:47:58;;;;;;;4.10;3.20;;;15.20;1.00;;;;;;5149161;27;20399;-75
2021/08/09 05:50:24;;;;;;;4.10;3.40;;;15.30;1.00;;;;;;5145713;27;20475;-74
2021/08/09 05:52:53;;;;;;;4.37;3.43;;;15.50;1.00;;;;;;5144313;27;20433;-75
2021/08/09 05:55:23;;;;;;;5.00;3.90;;;15.60;1.00;;;;;;5144041;27;20420;-75
2021/08/09 05:57:50;;;;;;;3.53;3.17;;;15.70;1.00;;;;;;5144963;27;20403;-76
2021/08/09 06:00:18;;;;;;;4.30;2.80;;;15.80;1.00;;;;;;5146668;27;20399;-75
2021/08/09 06:02:45;;;;;;;4.57;2.83;;;15.90;1.00;;;;;;5147417;27;20479;-75
2021/08/09 06:05:13;;;;;;;4.53;3.50;;;16.00;1.00;;;;;;5140781;27;20423;-78
2021/08/09 06:07:39;;;;;;;3.80;3.40;;;16.20;1.00;;;;;;5147622;27;20426;-76
2021/08/09 06:10:07;;;;;;;5.13;3.43;;;16.30;1.00;;;;;;5138896;27;20477;-76
2021/08/09 06:12:36;;;;;;;4.20;3.10;;;16.50;1.00;;;;;;5129806;27;20451;-76
2021/08/09 06:15:04;;;;;;;4.40;3.43;;;16.60;1.00;;;;;;5124446;27;20428;-76
2021/08/09 06:17:32;;;;;;;3.67;3.37;;;16.70;1.00;;;;;;5117085;27;20447;-76
2021/08/09 06:19:59;;;;;;;10.20;3.60;;;16.80;1.00;;;;;;5116503;27;20591;-76
2021/08/09 06:22:25;;;;;;;3.40;2.43;;;17.10;1.00;;;;;;5110519;27;21538;-77
2021/08/09 06:24:52;;;;;;;3.20;2.90;;;17.20;1.00;;;;;;5119288;27;20614;-79
2021/08/09 06:27:19;;;;;;;4.13;3.67;;;17.30;1.00;;;;;;5098260;27;21229;-78
2021/08/09 06:29:46;;;;;;;4.93;3.40;;;17.30;1.00;;;;;;5115683;27;20883;-76
2021/08/09 06:32:13;;;;;;;3.27;2.80;;;17.40;1.00;;;;;;5118642;27;20489;-77
2021/08/09 06:34:41;;;;;;;4.97;3.00;;;17.50;1.00;;;;;;5097590;27;20501;-76
2021/08/09 06:37:07;;;;;;;5.00;3.57;;;17.70;1.00;;;;;;5112944;27;20533;-77
2021/08/09 06:39:35;;;;;;;5.33;3.63;;;17.70;1.00;;;;;;5110937;27;20415;-80
2021/08/09 06:42:03;;;;;;;5.40;2.67;;;17.80;1.00;;;;;;5123458;27;20470;-79
2021/08/09 06:44:31;;;;;;;3.20;2.90;;;17.80;1.00;;;;;;5118880;27;20453;-77
2021/08/09 06:46:58;;;;;;;5.00;3.87;;;17.80;1.00;;;;;;5113830;27;20429;-77
2021/08/09 06:49:25;;;;;;;3.93;2.90;;;18.00;1.00;;;;;;5114965;27;20459;-78
2021/08/09 06:51:53;;;;;;;3.30;2.50;;;18.10;1.00;;;;;;5093242;27;20495;-76
2021/08/09 06:54:23;;;;;;;4.67;2.90;;;18.20;1.00;;;;;;5116683;27;20456;-79
2021/08/09 06:56:50;;;;;;;4.30;2.77;;;18.20;1.00;;;;;;5128152;27;20524;-79
2021/08/09 06:59:17;;;;;;;4.40;2.23;;;18.30;1.00;;;;;;5129572;27;20450;-78
2021/08/09 07:01:43;;;;;;;3.10;2.63;;;18.40;1.00;;;;;;5124522;27;20452;-79
2021/08/09 07:04:10;;;;;;;2.50;2.20;;;18.40;1.00;;;;;;5121456;27;20573;-78
2021/08/09 07:06:37;;;;;;;3.83;2.67;;;18.40;1.00;;;;;;5121229;27;20554;-78
2021/08/09 07:09:05;;;;;;;6.20;3.67;;;18.20;1.00;;;;;;5119045;27;20456;-78
2021/08/09 07:11:32;;;;;;;3.07;2.77;;;18.30;1.00;;;;;;5120557;27;20439;-78
2021/08/09 07:13:59;;;;;;;3.37;2.40;;;18.40;1.00;;;;;;5124590;27;20449;-76
2021/08/09 07:16:26;;;;;;;9.33;8.50;;;18.50;1.00;;;;;;5118664;27;20444;-77
2021/08/09 07:18:53;;;;;;;3.50;3.03;;;18.60;1.00;;;;;;5120484;27;20580;-77
2021/08/09 07:21:20;;;;;;;5.50;2.60;;;18.70;1.00;;;;;;5117687;27;20540;-75
2021/08/09 07:23:47;;;;;;;4.63;3.23;;;18.90;1.00;;;;;;5120501;27;20435;-77
2021/08/09 07:26:15;;;;;;;3.73;2.70;;;19.00;1.00;;;;;;5120703;27;20843;-77
2021/08/09 07:28:42;;;;;;;2.90;2.60;;;19.00;1.00;;;;;;5117148;27;20509;-77
2021/08/09 07:31:09;;;;;;;4.63;4.10;;;18.80;1.00;;;;;;5117531;27;21092;-77
2021/08/09 07:33:35;;;;;;;4.27;2.43;;;18.70;1.00;;;;;;5116966;27;20460;-75
2021/08/09 07:36:04;;;;;;;5.90;4.53;;;18.80;1.00;;;;;;5114691;27;20419;-77
2021/08/09 07:38:33;;;;;;;7.10;3.80;;;18.90;1.00;;;;;;5113731;27;20916;-75
2021/08/09 07:40:59;;;;;;;5.40;2.93;;;19.10;1.00;;;;;;5119693;27;20476;-77
2021/08/09 07:43:30;;;;;;;2.83;2.30;;;19.20;1.00;;;;;;5116503;27;20546;-78
2021/08/09 07:45:56;;;;;;;5.00;2.90;;;19.20;1.00;;;;;;5112665;27;20461;-76
2021/08/09 07:48:23;;;;;;;4.30;3.07;;;19.30;1.00;;;;;;5112299;27;21625;-77
2021/08/09 07:50:50;;;;;;;5.80;3.50;;;19.40;1.00;;;;;;5117175;27;20558;-76
2021/08/09 07:53:17;;;;;;;3.73;2.70;;;19.70;1.00;;;;;;5119323;27;20776;-78
2021/08/09 07:55:45;;;;;;;4.47;2.70;;;19.80;1.00;;;;;;5116604;27;20903;-77
2021/08/09 07:58:12;;;;;;;5.33;3.23;;;20.00;1.00;;;;;;5114699;27;21313;-78
2021/08/09 08:00:40;;;;;;;5.00;2.90;;;20.10;1.00;;;;;;5120680;27;20505;-77
2021/08/09 08:03:07;;;;;;;5.03;2.83;;;20.20;1.00;;;;;;5117755;27;20453;-77
2021/08/09 08:05:33;;;;;;;7.43;3.50;;;20.10;1.00;;;;;;5118363;27;20433;-76
2021/08/09 08:08:00;;;;;;;3.57;2.57;;;20.10;1.00;;;;;;5116698;27;20442;-80
2021/08/09 08:10:29;;;;;;;2.90;2.70;;;20.10;1.00;;;;;;5117536;27;20995;-78
2021/08/09 08:12:56;;;;;;;4.80;2.80;;;20.00;1.00;;;;;;5115720;27;20479;-77
2021/08/09 08:15:22;;;;;;;3.73;2.53;;;19.90;1.00;;;;;;5118189;27;20558;-77
2021/08/09 08:17:50;;;;;;;4.10;3.20;;;19.80;1.00;;;;;;5120551;27;22479;-77
2021/08/09 08:20:17;;;;;;;3.40;2.67;;;19.90;1.00;;;;;;5120408;27;20445;-77
2021/08/09 08:22:44;;;;;;;3.20;2.73;;;20.00;1.00;;;;;;5134248;27;20478;-78
2021/08/09 08:25:11;;;;;;;4.10;3.40;;;20.00;1.00;;;;;;5136104;27;20564;-78
2021/08/09 08:27:38;;;;;;;6.20;2.73;;;20.00;1.00;;;;;;5135664;27;20445;-77
2021/08/09 08:30:06;;;;;;;3.80;2.70;;;19.90;1.00;;;;;;5123253;27;20461;-77
2021/08/09 08:32:33;;;;;;;4.73;4.00;;;19.90;1.00;;;;;;5118614;27;20453;-77
2021/08/09 08:35:02;;;;;;;3.10;2.67;;;19.90;1.00;;;;;;5115212;27;20431;-77
2021/08/09 08:37:29;;;;;;;3.90;2.93;;;20.00;1.00;;;;;;5117329;27;20508;-78
2021/08/09 08:39:56;;;;;;;3.30;2.50;;;20.10;1.00;;;;;;5097467;27;20461;-78
2021/08/09 08:42:22;;;;;;;5.17;3.40;;;20.10;1.00;;;;;;5117625;27;20421;-78
2021/08/09 08:44:49;;;;;;;3.90;3.20;;;20.10;1.00;;;;;;5117898;27;20523;-79
2021/08/09 08:47:18;;;;;;;3.27;2.53;;;20.20;1.00;;;;;;5117594;27;22305;-75
2021/08/09 08:49:46;;;;;;;3.30;2.60;;;20.30;1.00;;;;;;5119134;27;20466;-76
2021/08/09 08:52:14;;;;;;;4.00;2.50;;;20.20;1.00;;;;;;5115449;27;23950;-81
2021/08/09 08:54:41;;;;;;;3.10;2.80;;;20.20;1.00;;;;;;5120316;27;20487;-77
2021/08/09 08:57:16;;;;;;;3.33;2.60;;;20.10;1.00;;;;;;5118426;27;20464;-78
2021/08/09 08:59:44;;;;;;;3.83;2.90;;;20.20;1.00;;;;;;5116116;27;20464;-76
2021/08/09 09:02:30;;;;;;;5.00;3.00;;;20.40;1.00;;;;;;5117044;27;21528;-79
2021/08/09 09:05:13;;;;;;;5.33;3.30;;;20.40;1.00;;;;;;5117912;27;21941;-77
2021/08/09 09:07:43;;;;;;;3.33;2.53;;;20.60;1.00;;;;;;5115530;27;20495;-78
2021/08/09 09:10:16;;;;;;;5.53;3.30;;;20.70;1.00;;;;;;5110893;27;21580;-75
2021/08/09 09:12:42;;;;;;;8.30;3.60;;;20.90;1.00;;;;;;5116621;27;20538;-76
2021/08/09 09:15:10;;;;;;;3.90;2.90;;;21.00;1.00;;;;;;5112258;27;20439;-77
2021/08/09 09:17:39;;;;;;;3.57;3.00;;;21.10;1.00;;;;;;5114065;27;20464;-74
2021/08/09 09:20:25;;;;;;;3.60;2.57;;;21.20;1.00;;;;;;5113036;27;20524;-73
2021/08/09 09:23:10;;;;;;;4.43;2.60;;;21.20;1.00;;;;;;5113966;27;20972;-76
2021/08/09 09:25:37;;;;;;;3.63;2.67;;;21.30;1.00;;;;;;5113875;27;20501;-75
2021/08/09 09:28:22;;;;;;;4.03;3.63;;;21.60;1.00;;;;;;5109085;27;20518;-75
2021/08/09 09:30:49;;;;;;;5.70;3.90;;;21.90;1.00;;;;;;5113500;27;20473;-74
2021/08/09 09:33:16;;;;;;;8.97;5.80;;;21.90;1.00;;;;;;5115193;27;20455;-75
2021/08/09 09:35:43;;;;;;;4.60;2.70;;;21.80;1.00;;;;;;5109285;27;20437;-76
2021/08/09 09:38:11;;;;;;;4.47;2.90;;;21.60;1.00;;;;;;5113568;27;21617;-74
2021/08/09 09:40:42;;;;;;;4.27;2.67;;;21.60;1.00;;;;;;5114145;27;20523;-76
2021/08/09 09:43:19;;;;;;;4.40;2.90;;;21.90;1.00;;;;;;5112810;27;20449;-76
2021/08/09 09:45:56;;;;;;;3.20;2.27;;;22.30;1.00;;;;;;5114431;27;21295;-76
2021/08/09 09:48:34;;;;;;;3.10;2.80;;;23.20;1.00;;;;;;5112465;27;20546;-76
2021/08/09 09:51:12;;;;;;;3.50;2.23;;;24.10;1.00;;;;;;5117093;27;20557;-75
2021/08/09 09:53:41;;;;;;;3.47;2.47;;;24.80;1.00;;;;;;5110361;27;21356;-77
2021/08/09 09:56:08;;;;;;;2.60;2.07;;;24.90;1.00;;;;;;5115395;27;21284;-77
2021/08/09 09:58:36;;;;;;;3.43;2.80;;;25.20;1.00;;;;;;5116822;27;20454;-77
2021/08/09 10:01:04;;;;;;;5.50;2.77;;;26.10;1.00;;;;;;5116730;27;20455;-78
2021/08/09 10:03:32;;;;;;;3.63;2.20;;;27.40;1.00;;;;;;5120335;27;21055;-75
2021/08/09 10:06:00;;;;;;;2.67;1.90;;;27.80;1.00;;;;;;5120428;27;20469;-76
2021/08/09 10:08:32;;;;;;;2.97;2.20;;;27.60;1.00;;;;;;5097654;27;20466;-76
2021/08/09 10:11:04;;;;;;;3.43;1.90;;;27.10;1.00;;;;;;5119089;27;20471;-81
2021/08/09 10:13:33;;;;;;;3.00;2.30;;;26.50;1.00;;;;;;5121923;27;20452;-75
2021/08/09 10:16:02;;;;;;;3.00;2.17;;;26.40;1.00;;;;;;5115438;27;20865;-75
2021/08/09 10:18:31;;;;;;;3.57;2.50;;;26.30;1.00;;;;;;5123044;27;20454;-76
2021/08/09 10:20:59;;;;;;;4.47;2.70;;;25.80;1.00;;;;;;5122962;27;20493;-76
2021/08/09 10:23:39;;;;;;;4.03;2.40;;;25.30;1.00;;;;;;5115343;27;20436;-75
2021/08/09 10:26:08;;;;;;;2.90;2.10;;;25.80;1.00;;;;;;5114237;27;20532;-77
2021/08/09 10:29:04;;;;;;;4.20;2.70;;;27.30;1.00;;;;;;5114289;27;20527;-75
2021/08/09 10:31:35;;;;;;;5.43;2.57;;;28.90;1.00;;;;;;5113000;27;20472;-74
2021/08/09 10:34:05;;;;;;;7.30;2.57;;;30.30;1.00;;;;;;5115727;27;20440;-77
2021/08/09 10:37:08;;;;;;;3.40;1.60;;;31.30;1.00;;;;;;5112512;27;21281;-78
2021/08/09 10:39:56;;;;;;;4.87;2.67;;;31.50;1.00;;;;;;5109648;27;20525;-76
2021/08/09 10:42:36;;;;;;;4.73;2.40;;;31.20;1.00;;;;;;5119817;27;20502;-75
2021/08/09 10:45:05;;;;;;;5.03;1.80;;;31.20;1.00;;;;;;5123522;27;20851;-75
2021/08/09 10:47:52;;;;;;;2.20;2.00;;;31.70;1.00;;;;;;5119470;27;20460;-74
2021/08/09 10:50:47;;;;;;;4.63;1.83;;;31.70;1.00;;;;;;5114783;27;20463;-75
2021/08/09 10:53:49;;;;;;;3.20;2.40;;;31.50;1.00;;;;;;5116392;27;20474;-76
2021/08/09 10:56:47;;;;;;;2.47;2.00;;;31.90;1.00;;;;;;5120115;27;20620;-76
2021/08/09 10:59:40;;;;;;;3.60;2.80;;;31.60;1.00;;;;;;5122191;27;20505;-75
2021/08/09 11:02:17;;;;;;;4.50;2.00;;;32.20;1.00;;;;;;5119145;27;20519;-77
2021/08/09 11:04:43;;;;;;;3.47;2.07;;;32.50;1.00;;;;;;5117700;27;20453;-77
2021/08/09 11:07:17;;;;;;;4.07;2.43;;;32.50;1.00;;;;;;5122241;27;20453;-76
2021/08/09 11:09:45;;;;;;;4.67;2.90;;;31.90;1.00;;;;;;5120348;27;20906;-77
2021/08/09 11:12:24;;;;;;;3.40;2.00;;;31.50;1.00;;;;;;5117774;27;20573;-76
2021/08/09 11:15:18;;;;;;;3.70;1.90;;;31.20;1.00;;;;;;5124104;27;21406;-76
2021/08/09 11:17:51;;;;;;;2.20;2.00;;;31.00;1.00;;;;;;5121421;27;20457;-76
2021/08/09 11:20:20;;;;;;;5.60;2.30;;;31.50;1.00;;;;;;5121552;27;20426;-74
2021/08/09 11:22:49;;;;;;;3.03;2.30;;;32.40;1.00;;;;;;5129792;27;20428;-76
2021/08/09 11:25:27;;;;;;;2.10;1.60;;;33.60;1.00;;;;;;5133637;27;20448;-76
2021/08/09 11:28:11;;;;;;;3.27;2.40;;;34.10;1.00;;;;;;5126277;27;20462;-75
2021/08/09 11:30:46;;;;;;;3.23;1.67;;;34.40;1.00;;;;;;5117714;27;20437;-77
2021/08/09 11:33:35;;;;;;;3.50;2.03;;;34.70;1.00;;;;;;5116755;27;21184;-77
2021/08/09 11:36:03;;;;;;;3.73;1.90;;;35.50;1.00;;;;;;5116750;27;20498;-76
2021/08/09 11:38:41;;;;;;;3.37;1.83;;;35.60;1.00;;;;;;5126046;27;20453;-79
2021/08/09 11:41:11;;;;;;;3.30;1.50;;;35.50;1.00;;;;;;5111413;27;20454;-75
2021/08/09 11:43:39;;;;;;;2.13;1.57;;;34.50;1.00;;;;;;5116384;27;20950;-74
2021/08/09 11:46:08;;;;;;;4.47;2.10;;;34.30;1.00;;;;;;5114690;27;20531;-73
2021/08/09 11:48:37;;;;;;;2.70;2.30;;;34.10;1.00;;;;;;5115267;27;20574;-75
2021/08/09 11:51:06;;;;;;;2.47;1.70;;;34.40;1.00;;;;;;5117834;27;20440;-72
2021/08/09 11:53:34;;;;;;;3.10;2.00;;;35.00;1.00;;;;;;5113195;27;20445;-75
2021/08/09 11:56:05;;;;;;;2.73;1.70;;;35.20;1.00;;;;;;5111669;27;20546;-75
2021/08/09 11:58:32;;;;;;;4.23;2.50;;;35.70;1.00;;;;;;5114880;27;20471;-72
2021/08/09 12:00:59;;;;;;;2.90;1.40;;;36.40;1.00;;;;;;5094472;27;20495;-75
2021/08/09 12:03:28;;;;;;;2.53;1.83;;;36.60;1.00;;;;;;5112359;27;20465;-76
2021/08/09 12:05:57;;;;;;;4.40;2.40;;;36.10;1.00;;;;;;5115962;27;21059;-76
2021/08/09 12:08:24;;;;;;;2.60;1.90;;;34.50;1.00;;;;;;5112819;27;20514;-75
2021/08/09 12:10:52;;;;;;;2.70;1.80;;;33.30;1.00;;;;;;5111797;27;20490;-73
2021/08/09 12:13:27;;;;;;;2.73;1.70;;;32.80;1.00;;;;;;5113980;27;20436;-75
2021/08/09 12:16:08;;;;;;;4.00;2.00;;;32.30;1.00;;;;;;5115270;27;20451;-76
2021/08/09 12:18:36;;;;;;;2.83;1.60;;;31.30;1.00;;;;;;5112939;27;20468;-71
2021/08/09 12:21:15;;;;;;;3.90;2.00;;;30.60;1.00;;;;;;5114131;27;21738;-70
2021/08/09 12:23:53;;;;;;;4.27;2.03;;;30.00;1.00;;;;;;5114952;27;20438;-71
2021/08/09 12:26:25;;;;;;;2.60;1.87;;;29.70;1.00;;;;;;5111856;27;20506;-71
2021/08/09 12:28:53;;;;;;;5.20;2.00;;;29.30;1.00;;;;;;5111791;27;20568;-70
2021/08/09 12:31:31;;;;;;;3.97;2.70;;;28.40;1.00;;;;;;5116488;27;20470;-75
2021/08/09 12:34:00;;;;;;;2.57;1.80;;;27.70;1.00;;;;;;5118160;27;20442;-77
2021/08/09 12:36:27;;;;;;;3.33;2.33;;;27.60;1.00;;;;;;5113958;27;20459;-75
2021/08/09 12:38:54;;;;;;;2.70;2.10;;;27.40;1.00;;;;;;5117920;27;20473;-77
2021/08/09 12:41:27;;;;;;;2.70;2.10;;;27.40;1.00;;;;;;5113526;27;20479;-76
2021/08/09 12:43:54;;;;;;;3.37;2.50;;;27.30;1.00;;;;;;5116353;27;21011;-76
2021/08/09 12:46:21;;;;;;;3.97;2.10;;;27.30;1.00;;;;;;5118420;27;20421;-77
2021/08/09 12:48:49;;;;;;;4.73;3.10;;;27.20;1.00;;;;;;5119849;27;20452;-76
2021/08/09 12:51:17;;;;;;;5.00;1.97;;;27.10;1.00;;;;;;5115361;27;20446;-77
2021/08/09 12:53:44;;;;;;;4.10;1.83;;;27.20;1.00;;;;;;5114469;27;20443;-77
2021/08/09 12:56:11;;;;;;;3.33;1.90;;;27.40;1.00;;;;;;5112601;27;20430;-75
2021/08/09 12:58:37;;;;;;;4.70;2.30;;;27.50;1.00;;;;;;5104948;27;20455;-76
2021/08/09 13:01:04;;;;;;;3.17;2.07;;;27.80;1.00;;;;;;5120149;27;20402;-77
2021/08/09 13:03:31;;;;;;;3.50;1.60;;;28.20;1.00;;;;;;5115097;27;21156;-74
2021/08/09 13:06:00;;;;;;;4.80;2.30;;;28.70;1.00;;;;;;5114347;27;20962;-76
2021/08/09 13:08:30;;;;;;;2.47;1.60;;;29.00;1.00;;;;;;5114011;27;20959;-75